Latest Weather Observations for Warruwi

IDD60801

Issued at 7:31 am CST Monday 17 February 2020 (issued every 10 minutes, with the page automatically refreshed every 10 minutes)

About weather observations | Map of weather stations | Latest weather observations for NT | Other Formats
Station Details ID: 014401 Name: WARRUWI AIRPORT Lat: -11.65 Lon: 133.38 Height: 19.2 m
Data from the previous 72 hours. | See also: Recent months at Warruwi
Date/Time
CST
Temp
°C
App
Temp
°C
Dew
Point
°C
Rel
Hum
%
Delta-T
°C
Wind Press
QNH
hPa
Press
MSL
hPa
Rain since
9am
mm
Dir  Spd
km/h
Gust
km/h
Spd
kts
Gust
kts
17/07:30am 27.9 32.3 24.5 82 2.4 WSW 9 13 5 7 1008.6 1008.4 0.0
17/07:00am 28.0 33.0 25.4 86 1.8 WSW 9 15 5 8 1008.4 1008.2 0.0
17/06:30am 28.0 32.7 25.6 87 1.7 WSW 11 15 6 8 1007.9 1007.7 0.0
17/06:00am 28.4 31.6 25.0 82 2.4 W 17 20 9 11 1007.6 1007.4 0.0
17/05:30am 28.5 33.1 25.3 83 2.3 W 11 13 6 7 1007.4 1007.2 0.0
17/05:00am 28.7 33.9 26.9 90 1.3 W 13 20 7 11 1007.5 1007.3 0.0
17/04:30am 29.0 34.7 27.0 89 1.4 WNW 11 17 6 9 1007.7 1007.5 0.0
17/04:00am 29.0 33.9 27.0 89 1.4 WNW 15 24 8 13 1007.4 1007.2 0.0
17/03:30am 28.8 33.6 26.8 89 1.4 WNW 15 24 8 13 1007.1 1006.9 0.0
17/03:00am 28.5 33.8 26.5 89 1.4 NW 11 22 6 12 1007.4 1007.2 0.0
17/02:30am 28.4 33.8 26.0 87 1.7 WNW 9 15 5 8 1007.7 1007.5 0.0
17/02:00am 28.2 33.3 25.6 86 1.8 NW 9 19 5 10 1007.7 1007.5 0.0
17/01:30am 28.4 33.5 25.6 85 2.0 NW 9 19 5 10 1008.0 1007.8 0.0
17/01:00am 28.4 34.0 25.4 84 2.1 NW 6 9 3 5 1008.2 1008.0 0.0
17/12:30am 28.1 33.7 25.5 86 1.8 NNW 6 11 3 6 1008.8 1008.6 0.0
17/12:00am 27.8 33.2 25.2 86 1.8 NNW 6 11 3 6 1009.1 1008.9 0.0
 
Date/Time
CST
Temp
°C
App
Temp
°C
Dew
Point
°C
Rel
Hum
%
Delta-T
°C
Wind Press
QNH
hPa
Press
MSL
hPa
Rain since
9am
mm
Dir  Spd
km/h
Gust
km/h
Spd
kts
Gust
kts
16/11:30pm 27.7 33.0 24.9 85 2.0 N 6 13 3 7 1009.1 1008.9 0.0
16/11:00pm 27.6 33.2 24.8 85 2.0 N 4 7 2 4 1009.4 1009.2 0.0
16/10:30pm 27.6 32.5 24.6 84 2.1 NE 7 13 4 7 1009.8 1009.6 0.0
16/10:00pm 27.9 31.6 24.5 82 2.4 ENE 13 22 7 12 1009.7 1009.5 0.0
16/09:30pm 30.2 36.0 25.7 77 3.2 ENE 6 11 3 6 1009.0 1008.8 0.0
16/09:00pm 30.5 36.4 26.2 78 3.1 ESE 7 15 4 8 1008.9 1008.7 0.0
16/08:30pm 30.6 36.3 25.9 76 3.3 WSW 7 11 4 6 1007.7 1007.5 0.0
16/08:00pm 30.8 36.6 26.1 76 3.4 WSW 7 13 4 7 1007.4 1007.2 0.0
16/07:30pm 31.0 35.9 25.8 74 3.7 WSW 11 17 6 9 1007.2 1007.0 0.0
16/07:00pm 31.4 35.6 26.0 73 3.9 WSW 15 24 8 13 1006.9 1006.7 0.0
16/06:30pm 32.0 35.7 25.8 69 4.4 W 17 24 9 13 1005.9 1005.7 0.0
16/06:00pm 32.9 36.0 25.7 66 5.1 W 20 30 11 16 1005.4 1005.2 0.0
16/05:30pm 33.6 36.1 25.3 62 5.9 W 22 30 12 16 1005.3 1005.1 0.0
16/05:00pm 33.9 36.1 24.8 59 6.4 WSW 22 30 12 16 1005.6 1005.4 0.0
16/04:30pm 34.6 37.1 25.4 59 6.6 W 22 28 12 15 1005.8 1005.6 0.0
16/04:00pm 34.5 36.8 25.0 57 6.7 W 22 28 12 15 1006.1 1005.9 0.0
16/03:30pm 34.6 36.9 25.1 57 6.8 W 22 33 12 18 1006.3 1006.1 0.0
16/03:00pm 34.2 37.2 26.1 62 5.8 W 22 32 12 17 1006.6 1006.4 0.0
16/02:30pm 34.4 37.0 25.5 60 6.4 W 22 30 12 16 1006.9 1006.7 0.0
16/02:00pm 33.5 37.0 26.0 65 5.4 WNW 19 28 10 15 1007.2 1007.0 0.0
16/01:30pm 33.4 37.0 26.2 66 5.2 WNW 19 28 10 15 1007.8 1007.6 0.0
16/01:00pm 32.9 36.1 25.9 66 5.0 WNW 20 28 11 15 1008.2 1008.0 0.0
16/12:30pm 33.3 36.9 26.1 66 5.2 WNW 19 30 10 16 1008.7 1008.5 0.0
16/12:00pm 33.4 37.4 26.2 66 5.2 W 17 26 9 14 1009.1 1008.9 0.0
16/11:30am 32.3 36.5 25.9 69 4.6 W 15 20 8 11 1009.5 1009.3 0.0
16/11:00am 32.0 36.7 26.1 71 4.2 WNW 13 20 7 11 1009.7 1009.5 0.0
16/10:30am 31.5 35.9 26.3 74 3.7 WNW 15 24 8 13 1009.6 1009.4 0.0
16/10:00am 30.8 35.1 26.1 76 3.4 WNW 15 28 8 15 1009.7 1009.5 0.0
16/09:30am 30.5 34.7 26.0 77 3.2 WNW 15 22 8 12 1009.2 1009.0 0.0
16/09:00am 30.0 34.4 25.7 78 3.1 WNW 13 22 7 12 1009.2 1009.0 0.0
16/08:30am 29.9 34.9 26.5 82 2.4 WNW 13 20 7 11 1009.2 1009.0 0.0
16/08:00am 29.4 34.3 26.4 84 2.1 WNW 13 24 7 13 1009.3 1009.1 0.0
16/07:30am 29.2 34.2 26.6 86 1.9 WNW 13 24 7 13 1008.8 1008.6 0.0
16/07:00am 29.0 34.3 26.4 86 1.9 WNW 11 19 6 10 1008.3 1008.1 0.0
16/06:30am 29.0 34.3 26.4 86 1.9 WNW 11 19 6 10 1007.7 1007.5 0.0
16/06:00am 29.0 33.0 25.6 82 2.4 W 15 22 8 12 1007.9 1007.7 0.0
16/05:30am 29.1 32.9 25.3 80 2.7 WNW 15 22 8 12 1007.4 1007.2 0.0
16/05:00am 29.0 32.5 25.4 81 2.5 W 17 24 9 13 1007.2 1007.0 0.0
16/04:30am 29.0 33.3 26.6 87 1.7 W 17 24 9 13 1007.1 1006.9 0.0
16/04:00am 29.1 34.0 26.9 88 1.6 WNW 15 24 8 13 1007.1 1006.9 0.0
16/03:30am 28.9 34.4 26.7 88 1.6 WNW 11 20 6 11 1007.0 1006.8 0.0
16/03:00am 29.0 33.8 26.8 88 1.6 WNW 15 24 8 13 1006.9 1006.7 0.0
16/02:30am 29.0 34.2 26.8 88 1.6 WNW 13 20 7 11 1006.9 1006.7 0.0
16/02:00am 29.0 33.6 26.6 87 1.7 WNW 15 26 8 14 1007.2 1007.0 0.0
16/01:30am 29.1 33.8 26.7 87 1.7 WNW 15 28 8 15 1007.8 1007.6 0.0
16/01:00am 29.2 33.8 26.6 86 1.9 WNW 15 24 8 13 1007.7 1007.5 0.0
16/12:30am 29.3 34.8 26.7 86 1.9 WNW 11 20 6 11 1008.1 1007.9 0.0
16/12:00am 29.4 35.3 26.8 86 1.9 WNW 9 19 5 10 1008.7 1008.5 0.0
 
Date/Time
CST
Temp
°C
App
Temp
°C
Dew
Point
°C
Rel
Hum
%
Delta-T
°C
Wind Press
QNH
hPa
Press
MSL
hPa
Rain since
9am
mm
Dir  Spd
km/h
Gust
km/h
Spd
kts
Gust
kts
15/11:30pm 29.4 35.8 27.0 87 1.7 WNW 7 13 4 7 1009.0 1008.8 0.0
15/11:00pm 29.4 35.5 27.0 87 1.7 NW 9 17 5 9 1008.2 1008.0 0.0
15/10:30pm 29.4 35.5 27.0 87 1.7 NW 9 13 5 7 1008.2 1008.0 0.0
15/10:00pm 29.4 35.8 27.0 87 1.7 NW 7 17 4 9 1008.2 1008.0 0.0
15/09:30pm 29.5 35.6 27.1 87 1.7 NW 9 17 5 9 1007.8 1007.6 0.0
15/09:00pm 29.6 35.7 27.0 86 1.9 NW 9 17 5 9 1007.5 1007.3 0.0
15/08:30pm 29.8 35.7 26.8 84 2.2 NW 9 17 5 9 1007.3 1007.1 0.0
15/08:00pm 30.0 36.6 27.2 85 2.0 NW 7 17 4 9 1007.1 1006.9 0.0
15/07:30pm 30.4 36.7 26.8 81 2.6 NW 7 15 4 8 1006.7 1006.5 0.0
15/07:00pm 31.9 36.1 26.0 71 4.2 W 15 20 8 11 1006.3 1006.1 0.0
15/06:30pm 32.2 37.2 26.0 70 4.4 WNW 11 20 6 11 1006.2 1006.0 0.0
15/06:00pm 33.5 37.7 26.0 65 5.4 W 15 20 8 11 1006.1 1005.9 0.0
15/05:30pm 33.6 38.0 25.6 63 5.7 WNW 13 19 7 10 1006.2 1006.0 0.0
15/05:00pm 33.8 37.3 25.5 62 5.9 W 17 22 9 12 1006.2 1006.0 0.0
15/04:30pm 34.1 37.5 25.8 62 5.9 W 19 24 10 13 1006.2 1006.0 0.0
15/04:00pm 34.0 37.7 25.7 62 5.9 W 17 26 9 14 1006.3 1006.1 0.0
15/03:30pm 33.8 37.2 25.2 60 6.1 WNW 17 24 9 13 1006.6 1006.4 0.0
15/03:00pm 34.3 38.3 26.2 62 5.8 W 17 28 9 15 1006.9 1006.7 0.0
15/02:30pm 33.9 37.5 25.6 62 5.9 W 17 26 9 14 1007.2 1007.0 0.0
15/02:00pm 33.9 37.3 25.3 60 6.1 WNW 17 24 9 13 1007.6 1007.4 0.0
15/01:30pm 33.3 35.8 24.5 60 6.2 W 19 26 10 14 1008.2 1008.0 0.0
15/01:00pm 33.9 36.6 24.8 59 6.4 W 19 30 10 16 1008.8 1008.6 0.0
15/12:30pm 33.5 36.2 24.7 60 6.2 W 19 28 10 15 1009.4 1009.2 0.0
15/12:00pm 33.2 36.3 25.7 64 5.4 W 20 30 11 16 1009.8 1009.6 0.0
15/11:30am 33.1 35.8 25.1 63 5.7 W 20 30 11 16 1010.3 1010.1 0.0
15/11:00am 31.7 36.3 26.5 74 3.7 WNW 15 22 8 12 1010.6 1010.4 0.0
15/10:30am 31.5 35.7 26.5 75 3.6 W 17 22 9 12 1010.9 1010.7 0.0
15/10:00am 30.6 34.4 26.5 79 2.9 W 19 26 10 14 1011.1 1010.9 0.0
15/09:30am 29.7 33.6 26.1 81 2.6 WNW 17 24 9 13 1011.2 1011.0 0.0
15/09:00am 29.4 33.4 26.2 83 2.3 WNW 17 24 9 13 1011.1 1010.9 0.0
15/08:30am 29.1 32.3 25.9 83 2.3 WNW 20 30 11 16 1011.1 1010.9 0.0
15/08:00am 29.1 32.7 26.1 84 2.1 WNW 19 28 10 15 1010.5 1010.3 0.0
15/07:30am 28.8 33.6 26.2 86 1.9 WNW 13 22 7 12 1009.9 1009.7 0.0
15/07:00am 28.6 33.7 26.2 87 1.7 WNW 11 19 6 10 1009.4 1009.2 0.0
15/06:30am 28.5 33.3 25.7 85 2.0 WNW 11 19 6 10 1008.9 1008.7 0.0
15/06:00am 28.6 32.8 25.4 83 2.3 WNW 13 22 7 12 1008.7 1008.5 0.0
15/05:30am 28.6 32.7 25.8 85 2.0 WNW 15 26 8 14 1008.4 1008.2 0.0
15/05:00am 28.4 32.9 25.8 86 1.8 WNW 13 17 7 9 1008.3 1008.1 0.0
15/04:30am 28.5 33.6 26.1 87 1.7 WNW 11 19 6 10 1008.1 1007.9 0.0
15/04:00am 28.6 33.7 26.2 87 1.7 WNW 11 19 6 10 1007.8 1007.6 0.0
15/03:30am 28.6 33.5 26.4 88 1.6 WNW 13 20 7 11 1007.6 1007.4 0.0
15/03:00am 28.6 34.1 26.8 90 1.3 WNW 11 17 6 9 1007.6 1007.4 0.0
15/02:30am 28.6 34.5 26.8 90 1.3 WNW 9 15 5 8 1007.6 1007.4 0.0
15/02:00am 28.6 34.5 26.8 90 1.3 WNW 9 17 5 9 1007.9 1007.7 0.0
15/01:30am 28.8 34.5 27.0 90 1.3 WNW 11 19 6 10 1008.2 1008.0 0.0
15/01:00am 28.9 34.5 26.9 89 1.4 WNW 11 24 6 13 1008.6 1008.4 0.0
15/12:30am 29.0 34.7 27.0 89 1.4 WNW 11 19 6 10 1008.8 1008.6 0.0
15/12:00am 29.1 35.4 27.3 90 1.3 WNW 9 19 5 10 1009.1 1008.9 0.0
 
Date/Time
CST
Temp
°C
App
Temp
°C
Dew
Point
°C
Rel
Hum
%
Delta-T
°C
Wind Press
QNH
hPa
Press
MSL
hPa
Rain since
9am
mm
Dir  Spd
km/h
Gust
km/h
Spd
kts
Gust
kts
14/11:30pm 29.1 34.8 27.1 89 1.4 WNW 11 17 6 9 1009.1 1008.9 0.0
14/11:00pm 29.1 35.2 27.1 89 1.4 WNW 9 20 5 11 1008.9 1008.7 0.0
14/10:30pm 29.1 35.2 27.1 89 1.4 WNW 9 20 5 11 1008.7 1008.5 0.0
14/10:00pm 29.2 35.1 26.8 87 1.7 NW 9 17 5 9 1008.4 1008.2 0.0
14/09:30pm 29.6 35.6 26.4 83 2.3 NW 7 15 4 8 1008.0 1007.8 0.0
14/09:00pm 30.2 35.3 25.5 76 3.3 WNW 9 19 5 10 1007.8 1007.6 0.0
14/08:30pm 30.4 35.7 25.9 77 3.2 WNW 9 13 5 7 1007.8 1007.6 0.0
14/08:00pm 31.0 35.3 24.9 70 4.3 WNW 11 19 6 10 1007.6 1007.4 0.0
14/07:30pm 31.4 34.6 24.3 66 5.0 W 15 22 8 12 1007.4 1007.2 0.0
14/07:00pm 31.4 36.0 25.3 70 4.3 WNW 11 19 6 10 1007.1 1006.9 0.0
14/06:30pm 31.9 35.5 25.0 67 4.9 WNW 15 22 8 12 1006.7 1006.5 0.0
14/06:00pm 32.6 36.0 25.2 65 5.3 W 17 24 9 13 1006.5 1006.3 0.0
14/05:30pm 33.2 37.4 26.0 66 5.2 W 15 20 8 11 1006.2 1006.0 0.0
14/05:00pm 33.4 37.2 25.9 65 5.4 W 17 22 9 12 1006.2 1006.0 0.0
14/04:30pm 33.7 37.2 25.4 62 5.9 W 17 24 9 13 1006.3 1006.1 0.0
14/04:00pm 33.8 37.5 26.3 65 5.4 WSW 19 28 10 15 1006.4 1006.2 0.0
14/03:30pm 34.3 37.6 26.0 62 6.0 W 20 28 11 15 1006.4 1006.2 0.0
14/03:00pm 34.4 37.2 25.2 58 6.6 W 20 32 11 17 1006.6 1006.4 0.0
14/02:30pm 34.7 37.7 25.5 59 6.6 W 20 32 11 17 1006.9 1006.7 0.0
14/02:00pm 33.8 36.3 24.7 59 6.4 W 20 28 11 15 1007.3 1007.1 0.0
14/01:30pm 33.8 36.8 25.5 62 5.9 W 20 30 11 16 1007.6 1007.4 0.0
14/01:00pm 33.9 36.8 25.9 63 5.7 W 22 26 12 14 1008.3 1008.1 0.0
14/12:30pm 32.6 36.8 25.9 68 4.8 W 15 24 8 13 1008.8 1008.6 0.0
14/12:00pm 33.0 37.4 26.8 70 4.5 W 17 24 9 13 1009.5 1009.3 0.0
14/11:30am 32.7 37.7 26.5 70 4.5 W 13 20 7 11 1009.8 1009.6 0.0
14/11:00am 31.6 36.4 26.2 73 3.9 WNW 13 20 7 11 1010.1 1009.9 0.0
14/10:30am 31.0 34.7 25.8 74 3.7 WNW 17 24 9 13 1010.4 1010.2 0.0
14/10:00am 30.5 34.6 25.8 76 3.3 WNW 15 24 8 13 1010.6 1010.4 0.0
14/09:30am 30.0 33.9 26.0 79 2.8 WNW 17 24 9 13 1010.5 1010.3 0.0
14/09:00am 29.8 34.4 26.0 80 2.7 WNW 13 24 7 13 1010.6 1010.4 0.0
14/08:30am 29.4 34.0 26.0 82 2.4 WNW 13 24 7 13 1010.4 1010.2 0.0
14/08:00am 29.1 34.6 26.1 84 2.1 NW 9 17 5 9 1010.2 1010.0 0.0

Other formats

Comma delimited format used in spreadsheet applications
http://www.bom.gov.au/fwo/IDD60801/IDD60801.94139.axf

JavaScript Object Notation format (JSON) in row-major order
http://www.bom.gov.au/fwo/IDD60801/IDD60801.94139.json

Data quality

Most of these data are generated automatically and are frequently updated. Quality checks on data are not normally performed. It is possible for incorrect values to appear. Refer to information at About Latest Weather Observations and please check the disclaimer before using these data.